createdAt,value
2022-12-07T00:01:51.053Z,9.18
2022-12-07T00:11:53.058Z,8.77
2022-12-07T00:21:54.427Z,11.30
2022-12-07T00:31:55.790Z,11.77
2022-12-07T00:41:57.135Z,12.15
2022-12-07T00:51:58.470Z,12.50
2022-12-07T01:01:59.859Z,13.27
2022-12-07T01:12:01.240Z,14.65
2022-12-07T01:22:02.595Z,11.47
2022-12-07T01:32:03.984Z,14.43
2022-12-07T01:42:05.384Z,14.98
2022-12-07T01:52:29.582Z,11.83
2022-12-07T02:02:35.139Z,14.03
2022-12-07T02:12:36.746Z,13.13
2022-12-07T02:23:05.106Z,11.95
2022-12-07T02:33:15.046Z,11.67
2022-12-07T02:43:28.200Z,11.83
2022-12-07T02:53:40.590Z,15.10
2022-12-07T03:03:50.351Z,12.70
2022-12-07T03:14:01.403Z,12.60
2022-12-07T03:24:09.647Z,13.50
2022-12-07T03:34:27.488Z,13.07
2022-12-07T03:44:29.604Z,13.50
2022-12-07T03:54:41.414Z,13.63
2022-12-07T04:04:44.060Z,11.68
2022-12-07T04:14:45.432Z,11.20
2022-12-07T04:24:46.832Z,11.73
2022-12-07T04:34:52.608Z,12.32
2022-12-07T04:44:56.675Z,12.43
2022-12-07T04:54:58.007Z,12.00
2022-12-07T05:04:59.364Z,11.13
2022-12-07T05:15:00.701Z,11.73
2022-12-07T05:25:02.043Z,10.83
2022-12-07T05:35:03.865Z,11.82
2022-12-07T05:45:05.997Z,12.02
2022-12-07T05:55:08.003Z,9.77
2022-12-07T06:05:09.345Z,10.17
2022-12-07T06:15:11.270Z,11.32
2022-12-07T06:25:12.610Z,10.20
2022-12-07T06:35:13.933Z,9.70
2022-12-07T06:45:15.346Z,9.43
2022-12-07T06:55:16.822Z,8.47
2022-12-07T07:05:18.219Z,9.87
2022-12-07T07:15:19.547Z,8.95
2022-12-07T07:25:21.015Z,9.50
2022-12-07T07:35:22.360Z,8.73
2022-12-07T07:45:25.332Z,7.13
2022-12-07T07:55:26.693Z,6.85
2022-12-07T08:05:28.040Z,6.03
2022-12-07T08:15:31.704Z,6.57
2022-12-07T08:25:33.681Z,7.50
2022-12-07T08:35:35.429Z,7.07
2022-12-07T08:45:36.955Z,6.47
2022-12-07T08:55:38.316Z,6.90
2022-12-07T09:05:39.829Z,7.05
2022-12-07T09:15:41.287Z,6.23
2022-12-07T09:25:42.703Z,4.20
2022-12-07T09:35:51.288Z,5.25
2022-12-07T09:45:55.968Z,5.23
2022-12-07T09:55:57.487Z,6.40
2022-12-07T10:05:59.046Z,6.22
2022-12-07T10:16:06.631Z,6.30
2022-12-07T10:26:30.353Z,5.43
2022-12-07T10:36:38.357Z,4.78
2022-12-07T10:47:17.996Z,5.88
2022-12-07T10:57:45.567Z,4.50
2022-12-07T11:08:14.243Z,3.83
2022-12-07T11:18:49.516Z,3.15
2022-12-07T11:29:02.104Z,2.90
2022-12-07T11:39:14.679Z,3.23
2022-12-07T11:49:20.284Z,2.33
2022-12-07T11:59:33.554Z,2.17
2022-12-07T12:09:50.517Z,4.00
2022-12-07T12:20:20.350Z,3.60
2022-12-07T12:31:04.633Z,3.75
2022-12-07T12:41:06.095Z,4.43
2022-12-07T12:51:40.330Z,3.47
2022-12-07T13:01:43.977Z,3.65
2022-12-07T13:11:47.038Z,2.93
2022-12-07T13:21:48.385Z,2.90
2022-12-07T13:31:52.406Z,3.55
2022-12-07T13:41:59.010Z,3.27
2022-12-07T13:52:15.724Z,2.37
2022-12-07T14:02:23.042Z,2.80
2022-12-07T14:12:26.293Z,2.75
2022-12-07T14:22:39.285Z,2.93
2022-12-07T14:32:41.801Z,2.30
2022-12-07T14:42:46.260Z,2.15
2022-12-07T15:03:20.965Z,2.30
2022-12-07T15:13:41.371Z,2.45
2022-12-07T15:23:43.318Z,2.70
2022-12-07T15:33:45.169Z,3.13
2022-12-07T15:44:05.582Z,2.50
2022-12-07T15:54:07.129Z,2.95
2022-12-07T16:04:08.567Z,3.30
2022-12-07T16:14:09.924Z,2.60
2022-12-07T16:24:11.429Z,3.38
2022-12-07T16:34:12.776Z,2.67
2022-12-07T16:44:14.527Z,2.80
2022-12-07T16:54:15.894Z,2.40
2022-12-07T17:04:17.258Z,3.60
2022-12-07T17:14:37.455Z,2.87
2022-12-07T17:24:39.264Z,3.15
2022-12-07T17:34:40.942Z,3.25
2022-12-07T17:44:42.606Z,2.70
2022-12-07T17:54:44.056Z,2.50
2022-12-07T18:04:47.366Z,2.30
2022-12-07T18:14:50.738Z,2.53
2022-12-07T18:24:52.062Z,3.37
2022-12-07T18:34:54.044Z,3.45
2022-12-07T18:44:55.439Z,4.40
2022-12-07T18:54:56.879Z,4.47
2022-12-07T19:04:58.318Z,5.30
2022-12-07T19:14:59.716Z,5.57
2022-12-07T19:25:01.354Z,5.60
2022-12-07T19:35:03.124Z,5.57
2022-12-07T19:45:05.730Z,5.60
2022-12-07T19:55:08.021Z,7.23
2022-12-07T20:05:10.089Z,5.47
2022-12-07T20:15:11.717Z,5.68
2022-12-07T20:25:13.055Z,6.67
2022-12-07T20:35:14.431Z,8.10
2022-12-07T20:45:15.774Z,6.40
2022-12-07T20:55:17.175Z,7.80
2022-12-07T21:05:19.557Z,7.40
2022-12-07T21:15:21.054Z,7.67
2022-12-07T21:25:22.487Z,6.95
2022-12-07T21:35:24.875Z,9.57
2022-12-07T21:45:26.204Z,8.93
2022-12-07T21:55:27.551Z,7.60
2022-12-07T22:05:28.899Z,6.10
2022-12-07T22:15:30.227Z,7.40
2022-12-07T22:25:31.634Z,4.72
2022-12-07T22:35:32.951Z,4.90
2022-12-07T22:45:34.393Z,5.43
2022-12-07T22:55:39.501Z,5.17
2022-12-07T23:05:50.024Z,7.40
2022-12-07T23:15:51.425Z,10.37
2022-12-07T23:25:52.988Z,10.57
2022-12-07T23:35:54.318Z,10.95
2022-12-07T23:45:55.668Z,10.20
2022-12-07T23:55:57.130Z,10.47
